Time;durP1;ratioP1;P1;durP2;ratioP2;P2;SDS_P1;SDS_P2;PMS_P1;PMS_P2;Temp;Humidity;BMP_temperature;BMP_pressure;BME280_temperature;BME280_humidity;BME280_pressure;Samples;Min_cycle;Max_cycle;Signal;HPM_P1;HPM_P2
2023/01/06 00:01:10;;;;;;;3.43;2.10;;;10.00;69.20;;;;;;5011465;28;47055;-64
2023/01/06 00:03:36;;;;;;;5.63;2.20;;;9.90;70.10;;;;;;5007425;28;46425;-64
2023/01/06 00:06:04;;;;;;;2.73;1.90;;;9.90;70.40;;;;;;5009630;28;47093;-63
2023/01/06 00:08:30;;;;;;;3.50;2.07;;;9.90;70.60;;;;;;5008469;28;47134;-63
2023/01/06 00:10:55;;;;;;;3.30;2.47;;;9.80;70.70;;;;;;5009863;28;48093;-64
2023/01/06 00:13:21;;;;;;;4.80;2.00;;;9.80;70.80;;;;;;5006573;28;45860;-63
2023/01/06 00:15:47;;;;;;;2.77;2.07;;;9.70;71.00;;;;;;5009661;28;46463;-64
2023/01/06 00:18:13;;;;;;;3.67;2.27;;;9.70;71.00;;;;;;5008460;28;46561;-63
2023/01/06 00:20:38;;;;;;;4.30;2.50;;;9.60;71.10;;;;;;5007141;28;46662;-64
2023/01/06 00:23:04;;;;;;;2.70;2.00;;;9.60;71.30;;;;;;5010982;28;46507;-63
2023/01/06 00:25:30;;;;;;;6.13;2.57;;;9.50;71.60;;;;;;5010204;28;46516;-62
2023/01/06 00:27:55;;;;;;;2.50;1.70;;;9.40;71.90;;;;;;5003321;28;46639;-63
2023/01/06 00:30:21;;;;;;;4.60;2.70;;;9.30;72.30;;;;;;5014765;28;46634;-64
2023/01/06 00:32:47;;;;;;;4.43;2.30;;;9.20;72.30;;;;;;5010431;28;46448;-62
2023/01/06 00:35:13;;;;;;;5.13;2.20;;;9.20;72.20;;;;;;5008222;28;46500;-63
2023/01/06 00:37:38;;;;;;;2.90;2.10;;;9.20;72.20;;;;;;5009145;28;46402;-64
2023/01/06 00:40:05;;;;;;;4.63;2.47;;;9.20;72.00;;;;;;5006201;28;47739;-63
2023/01/06 00:42:30;;;;;;;5.13;2.50;;;9.30;71.80;;;;;;5006177;28;46382;-63
2023/01/06 00:44:56;;;;;;;3.50;1.93;;;9.30;71.50;;;;;;5008271;28;46463;-63
2023/01/06 00:47:21;;;;;;;3.83;2.37;;;9.30;71.40;;;;;;5011297;28;45900;-64
2023/01/06 00:49:47;;;;;;;2.80;1.70;;;9.30;71.40;;;;;;5009448;28;46483;-63
2023/01/06 00:52:13;;;;;;;3.47;1.93;;;9.30;71.30;;;;;;5007830;28;46412;-64
2023/01/06 00:54:39;;;;;;;2.83;1.97;;;9.20;71.40;;;;;;5007849;28;45950;-65
2023/01/06 00:57:06;;;;;;;3.90;2.30;;;9.10;71.60;;;;;;5005799;28;46551;-64
2023/01/06 00:59:32;;;;;;;5.40;1.90;;;9.00;71.70;;;;;;5008086;28;47268;-64
2023/01/06 01:01:58;;;;;;;2.80;1.83;;;8.90;72.00;;;;;;5006608;28;46505;-64
2023/01/06 01:04:24;;;;;;;3.10;2.30;;;8.90;72.20;;;;;;5008516;28;46553;-64
2023/01/06 01:06:51;;;;;;;3.13;2.07;;;8.80;72.30;;;;;;5009247;28;46438;-64
2023/01/06 01:09:24;;;;;;;2.67;1.87;;;8.80;72.30;;;;;;5009668;28;47336;-64
2023/01/06 01:12:09;;;;;;;3.60;2.40;;;8.80;72.20;;;;;;5009914;28;46510;-64
2023/01/06 01:14:36;;;;;;;3.30;2.03;;;8.70;72.20;;;;;;5008586;28;46282;-63
2023/01/06 01:17:02;;;;;;;4.27;2.13;;;8.70;72.10;;;;;;5008662;28;46562;-64
2023/01/06 01:19:28;;;;;;;3.73;2.20;;;8.60;71.90;;;;;;5010785;28;46609;-64
2023/01/06 01:21:53;;;;;;;3.00;2.30;;;8.60;71.90;;;;;;5010258;28;46515;-64
2023/01/06 01:24:20;;;;;;;10.57;2.37;;;8.60;71.90;;;;;;5008035;28;46400;-64
2023/01/06 01:26:46;;;;;;;4.73;2.57;;;8.60;71.90;;;;;;5010798;28;46514;-64
2023/01/06 01:29:13;;;;;;;3.23;2.37;;;8.50;71.90;;;;;;5010078;28;47174;-63
2023/01/06 01:31:40;;;;;;;2.63;2.10;;;8.50;71.90;;;;;;5011780;28;46447;-64
2023/01/06 01:34:06;;;;;;;3.57;1.97;;;8.40;72.00;;;;;;5009676;28;46447;-64
2023/01/06 01:36:32;;;;;;;2.73;2.17;;;8.40;72.10;;;;;;5012554;28;46379;-65
2023/01/06 01:38:58;;;;;;;3.53;2.33;;;8.40;72.30;;;;;;5009670;28;46343;-64
2023/01/06 01:41:25;;;;;;;6.33;2.40;;;8.30;72.30;;;;;;5012101;28;45844;-64
2023/01/06 01:43:52;;;;;;;7.60;3.07;;;8.30;72.40;;;;;;5012907;28;46412;-63
2023/01/06 01:46:42;;;;;;;4.90;1.93;;;8.30;72.40;;;;;;5012733;28;45807;-64
2023/01/06 01:49:21;;;;;;;2.33;1.93;;;8.30;72.40;;;;;;5009606;28;46678;-64
2023/01/06 01:51:51;;;;;;;4.10;2.33;;;8.30;72.30;;;;;;5010250;28;46288;-64
2023/01/06 01:54:20;;;;;;;2.97;2.13;;;8.30;72.10;;;;;;5008459;28;46670;-65
2023/01/06 01:56:52;;;;;;;2.60;1.80;;;8.20;72.10;;;;;;5006342;28;46343;-63
2023/01/06 01:59:23;;;;;;;3.67;2.20;;;8.20;72.00;;;;;;5011953;28;46356;-64
2023/01/06 02:01:50;;;;;;;6.83;3.00;;;8.20;72.10;;;;;;5009373;28;46325;-64
2023/01/06 02:04:17;;;;;;;4.07;2.50;;;8.10;72.10;;;;;;5009692;28;46374;-64
2023/01/06 02:06:47;;;;;;;3.00;1.93;;;8.10;72.20;;;;;;5010145;28;46299;-64
2023/01/06 02:09:25;;;;;;;2.90;2.13;;;8.00;72.30;;;;;;5011586;28;46443;-64
2023/01/06 02:11:51;;;;;;;3.70;2.20;;;7.80;72.30;;;;;;5009317;28;46418;-64
2023/01/06 02:14:23;;;;;;;5.20;2.30;;;7.70;72.50;;;;;;5009399;28;46303;-64
2023/01/06 02:16:54;;;;;;;3.57;2.20;;;7.70;72.80;;;;;;5009736;28;46449;-64
2023/01/06 02:19:35;;;;;;;3.10;2.20;;;7.60;73.10;;;;;;5012964;28;46425;-64
2023/01/06 02:22:25;;;;;;;2.60;1.80;;;7.50;72.90;;;;;;5006895;28;46373;-64
2023/01/06 02:25:02;;;;;;;3.47;1.90;;;7.30;72.90;;;;;;5007506;28;46405;-64
2023/01/06 02:27:46;;;;;;;2.73;1.90;;;7.20;73.10;;;;;;5010282;28;46367;-64
2023/01/06 02:30:29;;;;;;;2.70;1.83;;;7.10;73.30;;;;;;5006669;28;46501;-64
2023/01/06 02:33:06;;;;;;;2.40;1.80;;;7.10;73.30;;;;;;5009032;28;46514;-64
2023/01/06 02:35:50;;;;;;;3.50;1.70;;;7.00;73.40;;;;;;5008584;28;46452;-64
2023/01/06 02:38:25;;;;;;;2.27;1.60;;;7.00;73.40;;;;;;5011503;28;45940;-63
2023/01/06 02:41:27;;;;;;;2.90;1.90;;;7.00;73.30;;;;;;5006629;28;46182;-64
2023/01/06 02:44:18;;;;;;;2.13;1.57;;;6.90;72.90;;;;;;5008781;28;46429;-64
2023/01/06 02:46:55;;;;;;;2.73;1.50;;;6.90;72.90;;;;;;5009955;28;46681;-64
2023/01/06 02:49:30;;;;;;;8.40;1.60;;;6.80;72.90;;;;;;5011614;28;46605;-64
2023/01/06 02:52:07;;;;;;;2.00;1.40;;;6.80;72.90;;;;;;5010458;28;46422;-63
2023/01/06 02:54:47;;;;;;;2.10;1.30;;;6.80;72.80;;;;;;5007835;28;46040;-63
2023/01/06 02:57:24;;;;;;;2.30;1.60;;;6.80;72.40;;;;;;5009607;28;46465;-63
2023/01/06 03:00:00;;;;;;;2.17;1.50;;;6.90;72.20;;;;;;5009067;28;46422;-64
2023/01/06 03:02:28;;;;;;;2.83;1.30;;;6.90;71.90;;;;;;5007378;28;47164;-63
2023/01/06 03:04:55;;;;;;;2.20;1.30;;;7.00;71.60;;;;;;5009511;28;46710;-64
2023/01/06 03:07:21;;;;;;;1.90;1.30;;;7.00;71.50;;;;;;5011889;28;45996;-64
2023/01/06 03:09:51;;;;;;;2.77;1.47;;;7.00;71.50;;;;;;5012366;28;46444;-64
2023/01/06 03:12:44;;;;;;;2.17;1.57;;;7.00;71.50;;;;;;5009849;28;46394;-64
2023/01/06 03:15:10;;;;;;;2.40;1.20;;;6.80;70.80;;;;;;5007160;28;46715;-64
2023/01/06 03:17:36;;;;;;;2.10;1.20;;;6.80;71.80;;;;;;5009282;28;46475;-64
2023/01/06 03:20:01;;;;;;;4.70;1.80;;;6.70;72.10;;;;;;5011398;28;46455;-64
2023/01/06 03:22:27;;;;;;;1.63;1.10;;;6.60;72.40;;;;;;5010306;28;47063;-63
2023/01/06 03:24:53;;;;;;;5.00;1.53;;;6.60;72.70;;;;;;5010926;28;46446;-64
2023/01/06 03:27:23;;;;;;;1.50;1.00;;;6.50;72.90;;;;;;5013927;28;46379;-64
2023/01/06 03:29:49;;;;;;;1.90;1.40;;;6.30;73.00;;;;;;5011530;28;46454;-63
2023/01/06 03:32:36;;;;;;;4.00;1.30;;;6.10;73.30;;;;;;5013373;28;46641;-64
2023/01/06 03:35:13;;;;;;;2.00;1.37;;;6.00;73.60;;;;;;5006962;28;46635;-65
2023/01/06 03:38:03;;;;;;;2.90;1.10;;;5.80;74.20;;;;;;5011287;28;46464;-64
2023/01/06 03:40:38;;;;;;;3.87;1.10;;;5.70;74.20;;;;;;5008865;28;46595;-65
2023/01/06 03:43:25;;;;;;;1.60;1.10;;;5.60;74.20;;;;;;5009885;28;46436;-64
2023/01/06 03:46:08;;;;;;;2.00;1.23;;;5.60;74.10;;;;;;5010119;28;46390;-64
2023/01/06 03:48:57;;;;;;;1.93;1.20;;;5.40;74.10;;;;;;5008781;28;45744;-63
2023/01/06 03:51:57;;;;;;;2.43;1.27;;;5.40;74.00;;;;;;5011716;28;45866;-63
2023/01/06 03:54:31;;;;;;;1.67;1.20;;;5.30;73.90;;;;;;5009424;28;46440;-64
2023/01/06 03:57:04;;;;;;;1.70;1.20;;;5.30;73.90;;;;;;5009845;28;46516;-63
2023/01/06 03:59:36;;;;;;;2.87;1.40;;;5.30;73.90;;;;;;5009838;28;45829;-63
2023/01/06 04:02:04;;;;;;;3.50;1.10;;;5.30;74.00;;;;;;5007821;28;46319;-64
2023/01/06 04:04:30;;;;;;;2.53;1.40;;;5.30;73.90;;;;;;5007692;28;46948;-64
2023/01/06 04:06:56;;;;;;;2.23;1.37;;;5.30;73.90;;;;;;5009680;28;46476;-64
2023/01/06 04:09:21;;;;;;;17.87;7.70;;;5.30;73.60;;;;;;5017510;28;46443;-64
2023/01/06 04:14:31;;;;;;;5.70;3.20;;;5.40;73.40;;;;;;5007556;28;46673;-64
2023/01/06 04:16:56;;;;;;;3.60;1.83;;;5.40;73.20;;;;;;5009693;28;46429;-63
2023/01/06 04:19:22;;;;;;;3.60;1.60;;;5.40;73.30;;;;;;5010749;28;46303;-65
2023/01/06 04:21:48;;;;;;;2.80;1.27;;;5.50;73.30;;;;;;5008807;28;46546;-64
2023/01/06 04:24:13;;;;;;;2.00;1.23;;;5.50;73.30;;;;;;5009721;28;47286;-65
2023/01/06 04:26:39;;;;;;;2.10;1.10;;;5.50;73.10;;;;;;5011529;28;46443;-65
2023/01/06 04:29:04;;;;;;;1.70;1.10;;;5.50;73.00;;;;;;5008887;28;46430;-64
2023/01/06 04:31:30;;;;;;;1.50;1.10;;;5.50;73.00;;;;;;5005839;28;45923;-64
2023/01/06 04:33:55;;;;;;;1.97;1.20;;;5.50;73.00;;;;;;5006926;28;46399;-65
2023/01/06 04:36:21;;;;;;;5.90;1.33;;;5.50;73.10;;;;;;5008130;28;45791;-63
2023/01/06 04:38:47;;;;;;;1.50;1.10;;;5.50;73.00;;;;;;5009239;28;46436;-63
2023/01/06 04:41:12;;;;;;;2.50;1.10;;;5.50;73.00;;;;;;5006522;28;46453;-64
2023/01/06 04:43:38;;;;;;;1.80;1.00;;;5.40;72.90;;;;;;5007994;28;46375;-64
2023/01/06 04:46:04;;;;;;;1.93;1.00;;;5.40;73.00;;;;;;5007965;28;46371;-64
2023/01/06 04:48:29;;;;;;;1.77;1.20;;;5.40;72.90;;;;;;5008787;28;46490;-64
2023/01/06 04:51:04;;;;;;;1.27;0.90;;;5.40;73.30;;;;;;5009074;28;46425;-65
2023/01/06 04:53:33;;;;;;;1.50;1.10;;;5.30;73.00;;;;;;5010843;28;47539;-64
2023/01/06 04:56:04;;;;;;;2.60;1.40;;;5.30;73.30;;;;;;5012045;28;46422;-65
2023/01/06 04:58:30;;;;;;;1.93;0.87;;;5.30;73.30;;;;;;5013119;28;46610;-63
2023/01/06 05:01:00;;;;;;;1.60;1.17;;;5.30;74.60;;;;;;5011959;28;46490;-64
2023/01/06 05:03:25;;;;;;;1.43;0.90;;;5.30;73.20;;;;;;5014832;28;46371;-64
2023/01/06 05:05:51;;;;;;;1.60;0.97;;;5.40;73.30;;;;;;5013394;28;46609;-64
2023/01/06 05:08:16;;;;;;;2.90;1.07;;;5.40;73.20;;;;;;5015411;28;46383;-64
2023/01/06 05:10:42;;;;;;;1.60;1.07;;;5.40;73.00;;;;;;5013192;28;46553;-64
2023/01/06 05:13:07;;;;;;;2.47;1.57;;;5.50;73.10;;;;;;5011402;28;46472;-64
2023/01/06 05:15:33;;;;;;;1.87;1.50;;;5.40;73.00;;;;;;5008567;28;46518;-64
2023/01/06 05:17:59;;;;;;;2.77;1.30;;;5.40;72.90;;;;;;5012808;28;46697;-64
2023/01/06 05:20:24;;;;;;;3.90;1.93;;;5.40;72.90;;;;;;5013695;28;46586;-65
2023/01/06 05:22:50;;;;;;;1.60;1.13;;;5.40;72.90;;;;;;5009585;28;46528;-64
2023/01/06 05:25:15;;;;;;;2.13;1.47;;;5.40;72.90;;;;;;5007936;28;46395;-65
2023/01/06 05:27:41;;;;;;;1.93;1.03;;;5.40;73.00;;;;;;5011524;28;46324;-64
2023/01/06 05:30:07;;;;;;;1.57;1.10;;;5.30;73.10;;;;;;5010504;28;46117;-64
2023/01/06 05:32:32;;;;;;;1.20;0.90;;;5.30;73.20;;;;;;5008664;28;46561;-64
2023/01/06 05:34:58;;;;;;;1.23;0.90;;;5.30;73.00;;;;;;5011528;28;46418;-64
2023/01/06 05:37:23;;;;;;;1.40;1.00;;;5.30;72.90;;;;;;5009879;28;46516;-63
2023/01/06 05:39:49;;;;;;;2.27;1.30;;;5.30;73.00;;;;;;5010085;28;46597;-65
2023/01/06 05:42:16;;;;;;;1.20;0.90;;;5.40;73.00;;;;;;5013080;28;46383;-64
2023/01/06 05:44:42;;;;;;;1.60;1.10;;;5.30;73.00;;;;;;5012198;28;46319;-65
2023/01/06 05:47:07;;;;;;;1.40;0.90;;;5.30;73.00;;;;;;5011278;28;46316;-65
2023/01/06 05:49:33;;;;;;;1.80;1.10;;;5.30;72.90;;;;;;5011485;28;46709;-65
2023/01/06 05:51:58;;;;;;;1.53;1.03;;;5.30;72.90;;;;;;5009543;28;45940;-65
2023/01/06 05:54:24;;;;;;;3.40;1.10;;;5.30;72.90;;;;;;5012434;28;46777;-64
2023/01/06 05:56:49;;;;;;;2.53;1.20;;;5.30;73.00;;;;;;5012408;28;46490;-64
2023/01/06 05:59:15;;;;;;;1.57;0.90;;;5.30;72.90;;;;;;5015647;28;46568;-63
2023/01/06 06:01:41;;;;;;;2.27;1.10;;;5.20;72.90;;;;;;5009829;28;46397;-64
2023/01/06 06:04:06;;;;;;;1.77;1.10;;;5.20;74.10;;;;;;5010850;28;46370;-65
2023/01/06 06:06:32;;;;;;;3.10;1.00;;;5.20;73.10;;;;;;5011376;28;46494;-64
2023/01/06 06:08:58;;;;;;;1.70;1.10;;;5.20;72.90;;;;;;5010752;28;46724;-64
2023/01/06 06:11:24;;;;;;;5.53;1.30;;;5.20;73.10;;;;;;5008559;28;47379;-63
2023/01/06 06:13:52;;;;;;;1.20;0.83;;;5.20;73.10;;;;;;5011412;28;45856;-64
2023/01/06 06:16:20;;;;;;;1.57;0.90;;;5.10;73.20;;;;;;5011338;28;46465;-65
2023/01/06 06:18:52;;;;;;;2.80;1.30;;;5.10;73.60;;;;;;5012198;28;46645;-64
2023/01/06 06:21:21;;;;;;;1.70;1.00;;;5.10;73.60;;;;;;5009358;28;47496;-64
2023/01/06 06:23:47;;;;;;;2.60;1.50;;;5.00;73.60;;;;;;5009721;28;46463;-63
2023/01/06 06:26:13;;;;;;;3.33;2.00;;;5.00;73.60;;;;;;5011766;28;46518;-63
2023/01/06 06:28:40;;;;;;;3.00;2.00;;;5.00;73.60;;;;;;5010042;28;46489;-64
2023/01/06 06:31:16;;;;;;;3.20;1.80;;;5.00;73.60;;;;;;5009456;28;46233;-64
2023/01/06 06:33:42;;;;;;;2.20;1.67;;;4.90;73.50;;;;;;5008701;28;46425;-64
2023/01/06 06:36:14;;;;;;;2.80;2.20;;;4.90;73.50;;;;;;5010813;28;46389;-64
2023/01/06 06:38:41;;;;;;;2.80;1.70;;;4.80;73.50;;;;;;5010568;28;46441;-64
2023/01/06 06:41:07;;;;;;;2.53;1.63;;;4.70;73.40;;;;;;5009945;28;47337;-64
2023/01/06 06:43:33;;;;;;;3.00;2.23;;;4.70;73.40;;;;;;5008895;28;46450;-65
2023/01/06 06:45:58;;;;;;;2.17;1.53;;;4.60;73.30;;;;;;5009403;28;45953;-64
2023/01/06 06:48:24;;;;;;;2.03;1.40;;;4.60;73.30;;;;;;5012617;28;46700;-64
2023/01/06 06:51:01;;;;;;;2.97;1.50;;;4.60;73.30;;;;;;5008747;28;46391;-64
2023/01/06 06:53:27;;;;;;;2.07;1.30;;;4.50;73.20;;;;;;5011366;28;46584;-64
2023/01/06 06:55:53;;;;;;;3.40;1.47;;;4.50;73.20;;;;;;5007055;28;46713;-65
2023/01/06 06:58:19;;;;;;;2.07;1.20;;;4.50;73.20;;;;;;5010974;28;46481;-64
2023/01/06 07:00:44;;;;;;;2.40;1.30;;;4.40;73.10;;;;;;5010491;28;46417;-65
2023/01/06 07:03:10;;;;;;;4.13;1.50;;;4.50;73.20;;;;;;5010267;28;46091;-64
2023/01/06 07:05:36;;;;;;;3.00;1.37;;;4.40;73.20;;;;;;5009029;28;46303;-63
2023/01/06 07:08:01;;;;;;;1.60;1.13;;;4.50;72.20;;;;;;5009876;28;45963;-63
2023/01/06 07:10:27;;;;;;;1.90;1.20;;;4.50;73.20;;;;;;5006752;28;46446;-63
2023/01/06 07:12:52;;;;;;;3.27;1.33;;;4.50;73.20;;;;;;5007485;28;46436;-64
2023/01/06 07:15:18;;;;;;;2.00;0.97;;;4.60;73.30;;;;;;5007493;28;46480;-64
2023/01/06 07:17:43;;;;;;;2.10;1.20;;;4.60;73.30;;;;;;5008496;28;46431;-64
2023/01/06 07:20:10;;;;;;;5.80;1.50;;;4.60;73.40;;;;;;5009610;28;46493;-63
2023/01/06 07:22:37;;;;;;;3.27;1.77;;;4.70;73.40;;;;;;5010495;28;46382;-63
2023/01/06 07:25:04;;;;;;;6.20;3.53;;;4.70;73.00;;;;;;5009278;28;46363;-63
2023/01/06 07:27:33;;;;;;;1.60;1.20;;;4.80;73.00;;;;;;5009036;28;46591;-64
2023/01/06 07:29:59;;;;;;;2.17;1.33;;;4.90;72.80;;;;;;5012082;28;47334;-63
2023/01/06 07:32:24;;;;;;;1.60;1.20;;;4.90;72.90;;;;;;5008740;28;46370;-64
2023/01/06 07:34:50;;;;;;;1.80;1.30;;;4.90;72.70;;;;;;5006988;28;45955;-63
2023/01/06 07:37:16;;;;;;;2.10;1.60;;;4.90;72.70;;;;;;5009318;28;46498;-64
2023/01/06 07:39:41;;;;;;;1.77;1.40;;;4.90;72.60;;;;;;5010811;28;47884;-64
2023/01/06 07:42:08;;;;;;;2.83;2.03;;;5.00;72.60;;;;;;5010322;28;46363;-64
2023/01/06 07:44:34;;;;;;;7.83;1.20;;;5.10;72.60;;;;;;5012265;28;46439;-65
2023/01/06 07:46:59;;;;;;;2.73;1.87;;;5.10;72.50;;;;;;5010476;28;46383;-63
2023/01/06 07:49:25;;;;;;;2.10;1.50;;;4.80;72.30;;;;;;5010037;28;46455;-64
2023/01/06 07:51:51;;;;;;;1.33;1.10;;;5.10;72.50;;;;;;5011203;28;46390;-63
2023/01/06 07:54:16;;;;;;;3.63;1.20;;;5.20;72.50;;;;;;5010053;28;45797;-63
2023/01/06 07:56:42;;;;;;;2.53;1.40;;;5.20;72.50;;;;;;5012251;28;46577;-64
2023/01/06 07:59:09;;;;;;;2.90;1.90;;;5.20;72.40;;;;;;5011249;28;46440;-63
2023/01/06 08:01:34;;;;;;;5.40;3.63;;;5.30;72.30;;;;;;5006815;28;45940;-64
2023/01/06 08:04:00;;;;;;;3.27;2.23;;;5.30;72.40;;;;;;5007644;28;46470;-65
2023/01/06 08:06:26;;;;;;;3.00;1.40;;;5.40;72.30;;;;;;5009674;28;46582;-64
2023/01/06 08:08:51;;;;;;;2.10;1.27;;;5.40;72.20;;;;;;5010494;28;46481;-65
2023/01/06 08:11:17;;;;;;;1.77;1.27;;;5.50;72.30;;;;;;5012467;28;46034;-65
2023/01/06 08:13:42;;;;;;;1.77;1.10;;;5.60;72.00;;;;;;5009218;28;46568;-63
2023/01/06 08:16:10;;;;;;;1.50;1.20;;;5.70;72.10;;;;;;5010061;28;46703;-64
2023/01/06 08:18:36;;;;;;;1.90;1.20;;;5.80;71.90;;;;;;5010197;28;46439;-64
2023/01/06 08:21:04;;;;;;;1.40;0.90;;;5.80;71.90;;;;;;5010716;28;46436;-64
2023/01/06 08:23:30;;;;;;;1.30;0.90;;;5.90;71.90;;;;;;5010414;28;46439;-63
2023/01/06 08:26:04;;;;;;;2.60;0.93;;;6.00;71.70;;;;;;5010003;28;46393;-63
2023/01/06 08:28:30;;;;;;;1.40;1.00;;;6.10;71.50;;;;;;5010482;28;47391;-65
2023/01/06 08:30:56;;;;;;;1.60;1.13;;;6.20;71.40;;;;;;5011449;28;46519;-64
2023/01/06 08:33:24;;;;;;;1.67;1.33;;;6.20;71.50;;;;;;5012597;28;45987;-64
2023/01/06 08:36:01;;;;;;;2.37;1.40;;;6.30;71.60;;;;;;5013400;28;46394;-64
2023/01/06 08:38:28;;;;;;;1.93;1.30;;;6.40;71.50;;;;;;5012624;28;47043;-65
2023/01/06 08:40:56;;;;;;;6.93;1.33;;;6.40;71.50;;;;;;5011526;28;46144;-65
2023/01/06 08:43:22;;;;;;;1.90;0.90;;;6.50;71.50;;;;;;5012686;28;45953;-64
2023/01/06 08:45:48;;;;;;;1.47;1.00;;;6.60;71.50;;;;;;5012503;28;46434;-64
2023/01/06 08:48:14;;;;;;;1.37;1.10;;;6.60;71.50;;;;;;5013129;28;46501;-64
2023/01/06 08:50:41;;;;;;;2.60;1.13;;;6.70;71.40;;;;;;5014182;28;45981;-63
2023/01/06 08:53:07;;;;;;;1.47;1.00;;;6.80;71.20;;;;;;5011652;28;46359;-64
2023/01/06 08:55:33;;;;;;;1.60;1.00;;;6.90;71.20;;;;;;5014414;28;46776;-64
2023/01/06 08:57:59;;;;;;;2.10;1.13;;;7.00;71.10;;;;;;5012712;28;46562;-65
2023/01/06 09:00:24;;;;;;;1.70;1.00;;;7.10;71.10;;;;;;5013978;28;46807;-64
2023/01/06 09:02:50;;;;;;;1.37;0.83;;;7.20;71.00;;;;;;5010375;28;46500;-64
2023/01/06 09:05:16;;;;;;;1.10;0.80;;;7.40;69.80;;;;;;5009058;28;46679;-64
2023/01/06 09:07:41;;;;;;;1.50;0.80;;;7.40;70.80;;;;;;5013135;28;48044;-64
2023/01/06 09:10:07;;;;;;;2.10;1.27;;;7.50;70.60;;;;;;5013061;28;46345;-64
2023/01/06 09:12:33;;;;;;;1.30;0.97;;;7.70;70.70;;;;;;5011189;28;46467;-64
2023/01/06 09:14:59;;;;;;;1.70;0.90;;;7.70;70.50;;;;;;5009528;28;46421;-64
2023/01/06 09:17:25;;;;;;;1.77;1.27;;;7.70;70.60;;;;;;5007857;28;46371;-64
2023/01/06 09:19:50;;;;;;;1.30;0.90;;;7.90;70.70;;;;;;5010435;28;46384;-64
2023/01/06 09:22:16;;;;;;;1.63;0.90;;;7.90;70.40;;;;;;5014918;28;46414;-64
2023/01/06 09:24:41;;;;;;;2.17;1.20;;;8.00;70.50;;;;;;5011187;28;46363;-64
2023/01/06 09:27:07;;;;;;;1.40;1.00;;;8.00;70.30;;;;;;5010216;28;46419;-64
2023/01/06 09:29:32;;;;;;;3.77;1.00;;;8.20;70.30;;;;;;5016488;28;46463;-65
2023/01/06 09:31:58;;;;;;;2.83;1.40;;;8.20;70.60;;;;;;5015100;28;46938;-64
2023/01/06 09:34:24;;;;;;;1.77;1.00;;;8.20;70.30;;;;;;5016579;28;45933;-65
2023/01/06 09:36:49;;;;;;;1.87;1.20;;;8.30;70.50;;;;;;5015466;28;48296;-64
2023/01/06 09:39:15;;;;;;;2.00;1.10;;;8.30;70.40;;;;;;5014499;28;46504;-64
2023/01/06 09:42:28;;;;;;;2.60;1.23;;;8.30;70.40;;;;;;5018111;28;46439;-65
2023/01/06 09:45:02;;;;;;;1.93;1.20;;;8.40;70.50;;;;;;5004521;28;46521;-65
2023/01/06 09:47:32;;;;;;;2.40;1.47;;;8.50;70.50;;;;;;5016359;28;46693;-64
2023/01/06 09:50:20;;;;;;;2.73;1.60;;;8.60;70.50;;;;;;5016713;28;46596;-64
2023/01/06 09:52:54;;;;;;;2.80;1.70;;;8.60;70.30;;;;;;5016814;28;46664;-65
2023/01/06 09:55:32;;;;;;;2.50;1.80;;;8.70;69.40;;;;;;5019091;28;46352;-64
2023/01/06 09:58:12;;;;;;;5.67;3.60;;;8.70;70.30;;;;;;5018661;28;46325;-64
2023/01/06 10:00:44;;;;;;;4.87;3.73;;;8.70;70.40;;;;;;5017757;28;46469;-64
2023/01/06 10:03:19;;;;;;;5.37;3.97;;;8.70;70.50;;;;;;5016819;28;46421;-64
2023/01/06 10:06:09;;;;;;;5.93;3.73;;;8.80;70.60;;;;;;5016788;28;46407;-64
2023/01/06 10:08:48;;;;;;;7.70;4.10;;;8.90;70.50;;;;;;5017351;28;46613;-65
2023/01/06 10:11:18;;;;;;;7.53;4.70;;;8.70;70.70;;;;;;5016775;28;45911;-64
2023/01/06 10:14:13;;;;;;;10.83;4.90;;;8.60;71.30;;;;;;5016709;28;45859;-64
2023/01/06 10:17:04;;;;;;;11.30;6.23;;;8.50;72.30;;;;;;4993238;28;46632;-64
2023/01/06 10:19:49;;;;;;;10.50;6.20;;;8.50;72.90;;;;;;5012992;28;46477;-64
2023/01/06 10:22:44;;;;;;;11.53;5.70;;;8.90;71.70;;;;;;5015697;28;46569;-64
2023/01/06 10:25:40;;;;;;;11.83;5.90;;;9.20;70.70;;;;;;5016183;28;46363;-64
2023/01/06 10:28:14;;;;;;;9.50;6.23;;;9.30;70.20;;;;;;5013719;28;46457;-64
2023/01/06 10:30:44;;;;;;;9.77;6.17;;;9.30;70.60;;;;;;5017119;28;47263;-64
2023/01/06 10:33:21;;;;;;;9.17;5.90;;;9.30;70.80;;;;;;5016592;28;46738;-64
2023/01/06 10:35:47;;;;;;;11.07;6.20;;;9.40;70.70;;;;;;5018489;28;46351;-64
2023/01/06 10:38:15;;;;;;;11.20;6.80;;;9.60;70.40;;;;;;5016363;28;46453;-65
2023/01/06 10:40:40;;;;;;;10.27;5.73;;;9.80;70.00;;;;;;5018109;28;47056;-65
2023/01/06 10:43:10;;;;;;;8.17;4.60;;;9.90;69.80;;;;;;5017196;28;46531;-65
2023/01/06 10:45:42;;;;;;;8.67;5.47;;;10.00;68.70;;;;;;5017196;28;46396;-65
2023/01/06 10:48:20;;;;;;;8.07;4.63;;;9.90;70.20;;;;;;5017681;28;46692;-65
2023/01/06 10:50:46;;;;;;;7.33;4.70;;;9.90;70.60;;;;;;5017458;28;47135;-64
2023/01/06 10:53:13;;;;;;;6.47;4.00;;;9.80;70.70;;;;;;5016365;28;46570;-65
2023/01/06 10:55:45;;;;;;;6.60;3.97;;;9.80;71.00;;;;;;5017315;28;46362;-64
2023/01/06 10:58:14;;;;;;;7.20;4.23;;;9.80;71.20;;;;;;5017274;28;46541;-65
2023/01/06 11:01:05;;;;;;;5.97;3.17;;;9.80;71.00;;;;;;5017392;28;46620;-65
2023/01/06 11:03:30;;;;;;;5.67;3.63;;;9.90;70.50;;;;;;5016632;28;46401;-64
2023/01/06 11:06:07;;;;;;;5.30;3.50;;;10.00;69.60;;;;;;5016436;28;46393;-64
2023/01/06 11:08:34;;;;;;;5.50;3.70;;;10.10;69.70;;;;;;5017376;28;46826;-65
2023/01/06 11:11:00;;;;;;;5.90;3.50;;;10.10;69.60;;;;;;5017810;28;46354;-64
2023/01/06 11:13:32;;;;;;;6.30;4.00;;;10.30;69.40;;;;;;5016908;28;46632;-64
2023/01/06 11:16:00;;;;;;;4.87;3.30;;;10.40;69.00;;;;;;5017128;28;46410;-64
2023/01/06 11:18:32;;;;;;;4.70;2.93;;;10.50;69.10;;;;;;5015910;28;46570;-64
2023/01/06 11:21:16;;;;;;;5.70;3.73;;;10.60;68.60;;;;;;5016194;28;47858;-64
2023/01/06 11:23:45;;;;;;;5.97;3.43;;;10.60;68.60;;;;;;5015943;28;46608;-64
2023/01/06 11:26:10;;;;;;;4.00;2.63;;;10.70;68.60;;;;;;5016249;28;46581;-64
2023/01/06 11:28:37;;;;;;;4.90;3.30;;;10.80;68.50;;;;;;5017748;28;46626;-65
2023/01/06 11:31:14;;;;;;;4.40;3.07;;;10.70;68.20;;;;;;5016983;28;46422;-63
2023/01/06 11:33:56;;;;;;;4.27;2.90;;;10.80;68.20;;;;;;5016763;28;46228;-63
2023/01/06 11:36:26;;;;;;;6.40;3.13;;;10.70;68.10;;;;;;5017188;28;46731;-63
2023/01/06 11:38:57;;;;;;;4.67;2.83;;;10.80;68.20;;;;;;5016372;28;46634;-64
2023/01/06 11:41:39;;;;;;;6.30;2.90;;;10.80;67.90;;;;;;5016786;28;46418;-63
2023/01/06 11:44:30;;;;;;;4.80;3.07;;;10.80;68.00;;;;;;5008733;28;46374;-63
2023/01/06 11:47:04;;;;;;;4.57;3.20;;;10.80;67.90;;;;;;5012840;28;46403;-64
2023/01/06 11:49:42;;;;;;;4.63;3.30;;;10.80;68.00;;;;;;5013821;28;46482;-63
2023/01/06 11:52:20;;;;;;;4.17;3.10;;;10.80;68.00;;;;;;5011734;28;46338;-63
2023/01/06 11:55:17;;;;;;;4.27;3.00;;;10.80;67.80;;;;;;5014004;28;46665;-65
2023/01/06 11:58:05;;;;;;;4.50;2.70;;;10.80;67.50;;;;;;5015240;28;46678;-64
2023/01/06 12:00:37;;;;;;;4.60;2.90;;;10.80;67.30;;;;;;5017279;28;46613;-65
2023/01/06 12:03:06;;;;;;;5.13;3.20;;;11.10;67.10;;;;;;5015338;28;46765;-61
2023/01/06 12:05:44;;;;;;;4.27;2.97;;;11.20;66.50;;;;;;5016339;28;46347;-63
2023/01/06 12:08:17;;;;;;;4.03;3.13;;;11.30;65.80;;;;;;5014369;28;46691;-63
2023/01/06 12:10:47;;;;;;;4.23;2.90;;;11.40;65.70;;;;;;5014866;28;46866;-63
2023/01/06 12:13:13;;;;;;;9.77;3.67;;;11.70;64.90;;;;;;5013229;28;46492;-63
2023/01/06 12:15:41;;;;;;;9.23;4.00;;;12.00;63.90;;;;;;5014601;28;45877;-64
2023/01/06 12:18:15;;;;;;;6.90;3.30;;;12.10;63.40;;;;;;5014884;28;46488;-63
2023/01/06 12:20:45;;;;;;;7.73;4.40;;;12.10;63.10;;;;;;5015629;28;46090;-64
2023/01/06 12:23:17;;;;;;;5.43;3.20;;;12.10;62.90;;;;;;5013576;28;46381;-63
2023/01/06 12:25:46;;;;;;;3.70;2.80;;;12.20;62.60;;;;;;5014434;28;46394;-64
2023/01/06 12:28:27;;;;;;;4.80;3.00;;;12.40;62.60;;;;;;5014138;28;46338;-63
2023/01/06 12:31:17;;;;;;;4.00;2.63;;;12.40;62.60;;;;;;5013973;28;46442;-63
2023/01/06 12:33:59;;;;;;;3.10;2.30;;;12.20;62.80;;;;;;5014811;28;47159;-65
2023/01/06 12:36:39;;;;;;;5.50;3.00;;;11.90;62.50;;;;;;5014276;28;46394;-63
2023/01/06 12:39:12;;;;;;;5.93;3.17;;;11.80;63.10;;;;;;5014199;28;46531;-64
2023/01/06 12:41:59;;;;;;;11.30;5.13;;;11.80;63.10;;;;;;5014776;28;46398;-63
2023/01/06 12:44:43;;;;;;;6.47;3.87;;;11.70;62.90;;;;;;5013464;28;46514;-62
2023/01/06 12:47:33;;;;;;;5.40;2.93;;;11.60;63.00;;;;;;5014014;28;46790;-62
2023/01/06 12:50:19;;;;;;;3.50;2.10;;;11.60;62.90;;;;;;5014337;28;47124;-62
2023/01/06 12:53:00;;;;;;;3.40;2.20;;;11.70;62.60;;;;;;5016789;28;46725;-65
2023/01/06 12:55:40;;;;;;;3.20;2.20;;;11.80;61.00;;;;;;5013973;28;46498;-63
2023/01/06 12:58:14;;;;;;;4.53;2.00;;;11.80;61.90;;;;;;5012655;28;46543;-65
2023/01/06 13:01:23;;;;;;;1.73;1.30;;;12.00;61.40;;;;;;5014797;28;46504;-65
2023/01/06 13:03:51;;;;;;;3.80;1.97;;;12.20;60.70;;;;;;4997359;28;46016;-64
2023/01/06 13:06:48;;;;;;;2.63;1.60;;;12.30;60.20;;;;;;5013663;28;46542;-64
2023/01/06 13:09:36;;;;;;;3.30;1.90;;;12.20;60.00;;;;;;5013606;28;46515;-64
2023/01/06 13:12:32;;;;;;;3.40;2.10;;;12.20;60.00;;;;;;5014585;28;46420;-64
2023/01/06 13:15:12;;;;;;;2.47;1.93;;;12.10;60.00;;;;;;5016966;28;46021;-64
2023/01/06 13:17:45;;;;;;;2.73;1.87;;;12.10;60.00;;;;;;5016370;28;46767;-64